Time;durP1;ratioP1;P1;durP2;ratioP2;P2;SDS_P1;SDS_P2;PMS_P1;PMS_P2;Temp;Humidity;BMP_temperature;BMP_pressure;BME280_temperature;BME280_humidity;BME280_pressure;Samples;Min_cycle;Max_cycle;Signal;HPM_P1;HPM_P2
2023/05/11 04:07:09;;;;;;;4.12;2.90;;;;;;;14.89;57.08;100584.72;5599003;31;217242;-56
2023/05/11 04:10:11;;;;;;;5.30;3.22;;;;;;;14.89;57.08;100584.72;5591374;31;34456;-56
2023/05/11 04:13:14;;;;;;;4.65;3.35;;;;;;;14.48;55.94;100588.25;5582235;32;34359;-56
2023/05/11 04:16:16;;;;;;;4.85;3.33;;;;;;;14.52;62.29;100586.56;5583531;31;33519;-56
2023/05/11 04:19:18;;;;;;;6.07;3.33;;;;;;;14.38;62.13;100588.47;5583413;31;33542;-57
2023/05/11 04:22:22;;;;;;;5.25;3.72;;;;;;;14.53;57.54;100590.06;5583605;32;33507;-56
2023/05/11 04:25:24;;;;;;;5.87;3.37;;;;;;;14.54;58.43;100597.88;5583099;32;34446;-56
2023/05/11 04:28:28;;;;;;;3.87;2.87;;;;;;;14.50;59.21;100596.87;5583098;31;33628;-56
2023/05/11 04:31:30;;;;;;;5.87;3.25;;;;;;;14.62;60.63;100598.25;5583049;31;33668;-56
2023/05/11 04:34:33;;;;;;;5.03;3.53;;;;;;;14.59;58.35;100596.16;5583328;31;33604;-56
2023/05/11 04:37:36;;;;;;;6.93;3.62;;;;;;;14.68;58.84;100603.25;5583114;31;34415;-56
2023/05/11 04:40:39;;;;;;;5.43;3.42;;;;;;;14.76;58.56;100615.22;5582851;32;34409;-56
2023/05/11 04:43:42;;;;;;;5.45;3.25;;;;;;;14.86;59.34;100614.22;5583379;31;33763;-56
2023/05/11 04:46:44;;;;;;;5.25;3.85;;;;;;;15.06;58.38;100610.25;5583309;31;34318;-56
2023/05/11 04:49:47;;;;;;;5.60;3.70;;;;;;;15.09;61.76;100607.75;5583114;32;34002;-56
2023/05/11 04:52:50;;;;;;;4.97;3.58;;;;;;;15.19;64.55;100612.12;5582777;32;33276;-56
2023/05/11 04:55:53;;;;;;;5.20;3.47;;;;;;;15.30;52.82;100621.59;5583098;31;34303;-56
2023/05/11 04:58:55;;;;;;;6.87;3.35;;;;;;;15.30;53.02;100609.97;5583001;32;33559;-56
2023/05/11 05:01:58;;;;;;;6.28;3.60;;;;;;;15.25;57.39;100613.59;5582914;31;34460;-55
2023/05/11 05:05:00;;;;;;;6.65;3.58;;;;;;;15.27;56.36;100612.19;5578270;32;33479;-57
2023/05/11 05:08:03;;;;;;;6.18;3.72;;;;;;;15.32;51.14;100619.38;5582113;32;33595;-55
2023/05/11 05:11:05;;;;;;;6.43;3.45;;;;;;;15.20;56.80;100619.94;5582662;31;34385;-56
2023/05/11 05:14:10;;;;;;;6.25;3.60;;;;;;;15.31;55.98;100617.00;5582747;31;32008;-56
2023/05/11 05:17:14;;;;;;;5.45;3.08;;;;;;;15.40;55.09;100615.97;5575365;31;33697;-57
2023/05/11 05:20:17;;;;;;;5.05;3.53;;;;;;;15.36;56.28;100625.75;5569664;32;34286;-57
2023/05/11 05:23:21;;;;;;;6.18;3.80;;;;;;;15.34;56.42;100630.69;5569423;32;33174;-55
2023/05/11 05:26:23;;;;;;;5.55;3.67;;;;;;;15.30;51.57;100627.00;5569406;32;33651;-56
2023/05/11 05:29:25;;;;;;;8.35;3.85;;;;;;;15.55;60.26;100625.59;5569487;32;33565;-56
2023/05/11 05:32:28;;;;;;;7.28;3.92;;;;;;;15.80;53.91;100626.13;5569689;31;33301;-56
2023/05/11 05:35:30;;;;;;;9.02;3.80;;;;;;;15.87;49.69;100624.56;5569824;31;34518;-57
2023/05/11 05:38:33;;;;;;;11.63;3.92;;;;;;;16.10;58.19;100629.94;5569426;32;33716;-55
2023/05/11 05:41:35;;;;;;;8.32;3.83;;;;;;;16.21;49.95;100632.03;5557659;32;32569;-56
2023/05/11 05:44:39;;;;;;;9.95;3.70;;;;;;;16.08;49.21;100629.44;5569294;31;34635;-55
2023/05/11 05:47:41;;;;;;;13.70;3.83;;;;;;;16.12;55.04;100633.91;5569384;31;33924;-56
2023/05/11 05:50:43;;;;;;;11.40;3.60;;;;;;;16.21;50.96;100636.66;5569263;32;34423;-56
2023/05/11 05:53:46;;;;;;;12.02;3.60;;;;;;;16.30;53.19;100637.50;5569053;32;34357;-55
2023/05/11 05:56:50;;;;;;;14.65;4.07;;;;;;;16.25;48.51;100634.13;5569247;32;33720;-56
2023/05/11 05:59:52;;;;;;;8.85;4.28;;;;;;;16.33;48.87;100642.28;5568430;32;34272;-56
2023/05/11 06:02:54;;;;;;;7.85;3.92;;;;;;;16.59;50.31;100633.47;5562397;31;33783;-56
2023/05/11 06:05:58;;;;;;;8.02;4.40;;;;;;;16.76;47.73;100632.75;5560487;32;33401;-59
2023/05/11 06:09:01;;;;;;;17.50;4.95;;;;;;;16.78;48.54;100630.50;5568860;32;34332;-58
2023/05/11 06:12:05;;;;;;;7.50;3.83;;;;;;;16.85;47.95;100631.66;5568993;32;34473;-58
2023/05/11 06:15:08;;;;;;;8.75;4.00;;;;;;;16.76;50.96;100640.87;5564779;31;33602;-59
2023/05/11 06:18:11;;;;;;;9.30;4.05;;;;;;;16.86;52.58;100629.75;5567827;32;33696;-59
2023/05/11 06:21:14;;;;;;;5.97;3.70;;;;;;;16.90;54.51;100631.47;5551201;32;34497;-58
2023/05/11 06:24:17;;;;;;;9.20;3.58;;;;;;;16.89;49.99;100629.91;5568533;32;33663;-59
2023/05/11 06:27:19;;;;;;;5.50;3.87;;;;;;;16.93;48.39;100632.78;5565947;31;33421;-59
2023/05/11 06:30:23;;;;;;;11.40;4.22;;;;;;;17.07;54.03;100629.91;5561530;31;34020;-57
2023/05/11 06:33:26;;;;;;;6.80;3.60;;;;;;;17.03;56.84;100634.38;5568016;32;32285;-58
2023/05/11 06:36:31;;;;;;;7.18;3.65;;;;;;;17.17;51.51;100635.00;5568670;32;31857;-58
2023/05/11 06:39:35;;;;;;;9.43;4.22;;;;;;;17.21;52.70;100635.97;5565852;32;33792;-58
2023/05/11 06:42:37;;;;;;;15.00;4.18;;;;;;;17.22;47.29;100625.94;5559767;31;34187;-58
2023/05/11 06:45:43;;;;;;;7.72;3.83;;;;;;;17.15;51.04;100626.41;5566952;32;34412;-58
2023/05/11 06:48:46;;;;;;;6.30;3.05;;;;;;;17.20;47.30;100628.97;5567156;32;34316;-57
2023/05/11 06:51:49;;;;;;;10.77;4.12;;;;;;;17.41;52.83;100623.69;5567456;32;34094;-58
2023/05/11 06:54:51;;;;;;;6.87;3.62;;;;;;;17.54;54.81;100627.34;5567121;32;33183;-58
2023/05/11 06:57:54;;;;;;;6.87;3.40;;;;;;;17.60;47.96;100623.37;5568263;32;33583;-57
2023/05/11 07:00:57;;;;;;;5.40;3.47;;;;;;;17.66;48.82;100624.00;5560281;32;32762;-58
2023/05/11 07:03:59;;;;;;;10.23;3.40;;;;;;;17.61;47.61;100623.06;5566287;32;33277;-58
2023/05/11 07:07:02;;;;;;;9.82;3.47;;;;;;;17.59;45.46;100613.66;5565764;32;34259;-58
2023/05/11 07:10:05;;;;;;;7.90;3.30;;;;;;;17.66;47.60;100619.38;5567683;32;34305;-58
2023/05/11 07:13:08;;;;;;;8.18;3.62;;;;;;;17.73;44.58;100622.38;5565071;32;33721;-58
2023/05/11 07:16:10;;;;;;;8.02;3.65;;;;;;;17.74;45.65;100613.13;5566213;32;33682;-58
2023/05/11 07:19:13;;;;;;;9.90;4.30;;;;;;;17.83;46.50;100613.13;5562956;32;33573;-58
2023/05/11 07:22:15;;;;;;;10.18;4.15;;;;;;;17.92;46.37;100613.13;5567938;32;34318;-58
2023/05/11 07:25:17;;;;;;;7.43;4.07;;;;;;;18.06;46.38;100608.28;5567857;32;33513;-58
2023/05/11 07:28:20;;;;;;;10.20;5.20;;;;;;;18.00;45.00;100606.87;5568188;32;33577;-58
2023/05/11 07:31:22;;;;;;;10.13;4.43;;;;;;;18.13;50.94;100605.88;5567517;32;33568;-58
2023/05/11 07:34:25;;;;;;;14.48;4.80;;;;;;;18.16;45.62;100607.94;5568037;32;34222;-58
2023/05/11 07:37:27;;;;;;;16.83;3.53;;;;;;;18.23;47.19;100602.00;5564713;32;32154;-58
2023/05/11 07:40:29;;;;;;;12.37;3.30;;;;;;;18.31;43.10;100601.97;5565456;32;33636;-58
2023/05/11 07:43:32;;;;;;;12.65;3.75;;;;;;;18.40;44.38;100604.62;5567653;32;33716;-58
2023/05/11 07:46:34;;;;;;;10.00;3.50;;;;;;;18.40;45.18;100601.12;5567691;32;33719;-58
2023/05/11 07:49:36;;;;;;;91.18;10.45;;;;;;;18.44;48.48;100605.56;5567480;32;33515;-58
2023/05/11 07:52:45;;;;;;;4.18;2.90;;;;;;;18.33;44.59;100615.19;5567643;32;34318;-58
2023/05/11 07:55:47;;;;;;;11.65;3.83;;;;;;;18.35;43.80;100602.09;5566516;32;33805;-58
2023/05/11 07:58:49;;;;;;;14.55;3.47;;;;;;;18.34;44.34;100608.62;5565807;32;33629;-57
2023/05/11 08:01:52;;;;;;;8.55;3.45;;;;;;;18.39;43.57;100607.69;5568160;32;33603;-58
2023/05/11 08:04:54;;;;;;;5.75;3.00;;;;;;;18.43;45.83;100597.75;5566203;32;34148;-58
2023/05/11 08:07:57;;;;;;;11.52;3.62;;;;;;;18.60;45.05;100600.34;5561292;32;33183;-58
2023/05/11 08:11:00;;;;;;;7.97;3.08;;;;;;;18.69;43.97;100603.03;5567625;32;33638;-58
2023/05/11 08:14:02;;;;;;;12.25;3.80;;;;;;;18.55;42.64;100593.22;5567115;32;33566;-56
2023/05/11 08:17:05;;;;;;;19.33;3.75;;;;;;;18.65;46.00;100600.19;5567762;32;33783;-58
2023/05/11 08:20:08;;;;;;;7.47;3.60;;;;;;;18.77;48.54;100591.34;5562431;32;33431;-58
2023/05/11 08:23:15;;;;;;;5.95;3.53;;;;;;;18.78;46.54;100590.22;5550833;32;33570;-58
2023/05/11 08:26:18;;;;;;;28.08;5.18;;;;;;;18.85;43.15;100595.94;5558531;32;34291;-58
2023/05/11 08:29:21;;;;;;;10.88;3.47;;;;;;;18.84;45.52;100588.91;5562875;32;34316;-58
2023/05/11 08:32:23;;;;;;;10.57;3.42;;;;;;;18.94;44.32;100585.81;5560443;32;33735;-58
2023/05/11 08:35:26;;;;;;;14.95;3.53;;;;;;;19.04;49.00;100583.78;5564240;32;33940;-58
2023/05/11 08:38:28;;;;;;;10.48;3.42;;;;;;;19.24;44.63;100583.78;5556397;32;33908;-58
2023/05/11 08:41:30;;;;;;;14.20;3.28;;;;;;;19.32;47.60;100581.31;5551359;32;34052;-58
2023/05/11 08:44:36;;;;;;;21.02;5.30;;;;;;;19.32;44.79;100571.25;5562586;32;33594;-58
2023/05/11 08:47:39;;;;;;;5.22;2.80;;;;;;;19.29;42.60;100566.47;5564987;32;33550;-58
2023/05/11 08:50:41;;;;;;;11.75;3.65;;;;;;;19.32;44.63;100556.84;5566240;32;34414;-58
2023/05/11 08:53:43;;;;;;;17.40;4.22;;;;;;;19.40;43.31;100566.84;5564622;32;34278;-58
2023/05/11 08:56:46;;;;;;;9.57;3.67;;;;;;;19.29;41.41;100563.75;5569090;32;33584;-58
2023/05/11 08:59:52;;;;;;;17.27;3.65;;;;;;;19.18;44.33;100566.09;5567706;32;33573;-58
2023/05/11 09:02:56;;;;;;;11.35;3.35;;;;;;;19.19;43.86;100558.72;5566882;32;33801;-58
2023/05/11 09:06:01;;;;;;;13.50;3.83;;;;;;;19.15;42.54;100560.53;5567746;32;33572;-58
2023/05/11 09:09:04;;;;;;;8.18;3.17;;;;;;;19.09;42.74;100546.34;5567915;31;33666;-58
2023/05/11 09:12:08;;;;;;;18.92;4.03;;;;;;;19.22;44.66;100548.00;5569257;32;33605;-59
2023/05/11 09:15:11;;;;;;;12.15;3.20;;;;;;;19.43;44.13;100552.56;5567874;32;33649;-58
2023/05/11 09:18:14;;;;;;;9.93;2.90;;;;;;;19.49;42.60;100546.59;5569400;32;33714;-58
2023/05/11 09:21:16;;;;;;;37.58;4.82;;;;;;;19.67;43.79;100554.63;5568159;32;34443;-58
2023/05/11 09:24:19;;;;;;;8.93;2.90;;;;;;;19.68;42.79;100551.53;5568010;32;34324;-58
2023/05/11 09:27:23;;;;;;;10.20;3.28;;;;;;;19.70;43.04;100537.59;5568763;32;34199;-58
2023/05/11 09:30:27;;;;;;;13.27;3.08;;;;;;;19.61;40.18;100539.63;5566224;32;33767;-58
2023/05/11 09:33:29;;;;;;;14.13;3.10;;;;;;;19.61;44.18;100545.06;5562238;32;33735;-58
2023/05/11 09:36:31;;;;;;;25.60;4.07;;;;;;;19.39;40.55;100528.00;5554941;32;34336;-58
2023/05/11 09:39:35;;;;;;;7.07;2.90;;;;;;;19.52;40.58;100528.81;5555894;32;33804;-58
2023/05/11 09:42:59;;;;;;;4.95;2.55;;;;;;;19.58;46.18;100527.47;5568910;32;33689;-59
2023/05/11 09:46:05;;;;;;;11.65;2.97;;;;;;;19.58;39.69;100519.31;5567934;32;33819;-58
2023/05/11 09:49:10;;;;;;;8.27;2.40;;;;;;;19.70;40.78;100524.81;5565706;32;34356;-58
2023/05/11 09:52:15;;;;;;;5.12;2.17;;;;;;;19.79;38.54;100518.47;5568833;32;34372;-58
2023/05/11 09:55:18;;;;;;;4.80;2.17;;;;;;;19.76;37.20;100517.22;5569147;32;34442;-58
2023/05/11 09:58:22;;;;;;;5.03;2.45;;;;;;;19.84;43.09;100521.75;5569026;32;33646;-58
2023/05/11 10:01:32;;;;;;;9.65;2.40;;;;;;;19.94;38.44;100518.59;5568894;32;33817;-58
2023/05/11 10:04:35;;;;;;;7.57;2.72;;;;;;;20.04;36.95;100516.56;5568723;32;33921;-59
2023/05/11 10:07:38;;;;;;;5.07;2.10;;;;;;;20.05;39.06;100515.41;5568499;32;33702;-58
2023/05/11 10:10:40;;;;;;;3.92;2.08;;;;;;;20.02;35.85;100497.84;5567810;32;33341;-58
2023/05/11 10:13:44;;;;;;;4.68;2.42;;;;;;;20.07;36.35;100505.00;5568730;32;33665;-58
2023/05/11 10:16:47;;;;;;;5.15;2.17;;;;;;;20.17;39.80;100508.03;5567317;32;33596;-58
2023/05/11 10:19:50;;;;;;;6.68;2.55;;;;;;;20.15;35.99;100491.25;5568804;32;33733;-58
2023/05/11 10:22:54;;;;;;;6.87;2.78;;;;;;;20.30;41.32;100492.50;5568311;32;34110;-58
2023/05/11 10:25:57;;;;;;;10.48;2.62;;;;;;;20.32;38.83;100486.69;5566542;32;33666;-58
2023/05/11 10:29:00;;;;;;;14.80;2.97;;;;;;;20.33;37.35;100491.81;5564929;32;33651;-58
2023/05/11 10:32:06;;;;;;;3.95;2.08;;;;;;;20.12;35.74;100494.66;5568999;32;34246;-58
2023/05/11 10:35:08;;;;;;;7.72;2.12;;;;;;;20.13;43.90;100496.25;5568406;32;33691;-58
2023/05/11 10:38:12;;;;;;;5.65;2.40;;;;;;;20.25;36.46;100481.81;5566596;32;34265;-58
2023/05/11 10:41:51;;;;;;;6.75;2.47;;;;;;;20.26;36.30;100486.12;5562618;32;33185;-58
2023/05/11 10:45:08;;;;;;;5.03;2.58;;;;;;;20.27;43.54;100493.19;5551415;32;34323;-58
2023/05/11 10:48:47;;;;;;;6.95;2.53;;;;;;;20.28;36.17;100478.41;5553767;32;33634;-59
2023/05/11 10:52:22;;;;;;;11.07;2.60;;;;;;;20.22;35.66;100477.06;5559200;32;34338;-59
2023/05/11 10:55:49;;;;;;;5.07;2.05;;;;;;;20.26;39.08;100475.25;5561561;32;33640;-59
2023/05/11 10:59:19;;;;;;;6.65;2.62;;;;;;;20.15;36.95;100474.13;5564242;32;34037;-58
2023/05/11 11:02:30;;;;;;;13.43;2.42;;;;;;;20.27;36.74;100474.13;5565645;32;33807;-59
2023/05/11 11:05:34;;;;;;;2.20;1.95;;;;;;;20.38;36.92;100469.78;5561022;32;33616;-59
2023/05/11 11:09:00;;;;;;;6.70;2.33;;;;;;;20.45;37.33;100463.75;5564791;31;33672;-59
2023/05/11 11:12:09;;;;;;;11.95;2.33;;;;;;;20.61;37.31;100464.63;5554457;32;34389;-58
2023/05/11 11:15:11;;;;;;;7.87;2.45;;;;;;;20.72;37.00;100464.16;5559150;32;33635;-59
2023/05/11 11:18:26;;;;;;;7.90;2.20;;;;;;;20.69;33.56;100467.56;5554616;32;33738;-58
2023/05/11 11:21:47;;;;;;;3.87;1.95;;;;;;;20.64;34.75;100458.50;5565386;32;33624;-58
2023/05/11 11:24:50;;;;;;;3.50;1.85;;;;;;;20.77;32.46;100442.12;5561516;32;33576;-58
2023/05/11 11:27:54;;;;;;;8.90;2.20;;;;;;;20.58;34.74;100457.16;5556045;32;33586;-58
2023/05/11 11:31:23;;;;;;;8.77;2.35;;;;;;;20.56;35.08;100451.28;5560861;32;34463;-58
2023/05/11 11:34:26;;;;;;;9.70;2.20;;;;;;;20.53;37.78;100459.31;5554339;32;33146;-58
2023/05/11 11:37:28;;;;;;;8.05;3.40;;;;;;;20.61;35.76;100447.50;5550908;32;33654;-58
2023/05/11 11:40:35;;;;;;;27.83;2.95;;;;;;;20.72;34.68;100440.41;5559172;32;33656;-59
2023/05/11 11:43:54;;;;;;;8.38;2.40;;;;;;;20.78;34.52;100439.03;5567853;32;34232;-58
2023/05/11 11:47:12;;;;;;;6.50;2.30;;;;;;;20.56;35.10;100450.47;5567270;32;33628;-58
2023/05/11 11:50:14;;;;;;;6.10;2.40;;;;;;;20.54;34.87;100445.38;5567854;32;32408;-58
2023/05/11 11:53:35;;;;;;;8.43;2.70;;;;;;;20.57;39.87;100433.00;5568214;32;34332;-58
2023/05/11 11:56:39;;;;;;;10.80;2.90;;;;;;;20.61;35.91;100442.06;5567603;32;33733;-58
2023/05/11 11:59:48;;;;;;;8.20;2.12;;;;;;;20.67;34.87;100439.91;5566736;32;33616;-58
2023/05/11 12:02:52;;;;;;;5.65;2.10;;;;;;;20.65;37.93;100442.94;5558776;32;33650;-58
2023/05/11 12:06:00;;;;;;;5.28;2.22;;;;;;;20.67;34.94;100437.16;5560188;32;34007;-58
2023/05/11 12:09:05;;;;;;;4.20;1.95;;;;;;;20.73;35.78;100438.47;5567188;32;34376;-58
2023/05/11 12:12:08;;;;;;;6.75;2.17;;;;;;;20.78;32.90;100435.53;5557833;32;33724;-58
2023/05/11 12:15:25;;;;;;;9.88;2.80;;;;;;;20.78;34.81;100427.34;5553149;32;34076;-58
2023/05/11 12:18:27;;;;;;;13.68;2.42;;;;;;;20.83;34.28;100433.34;5567762;32;33472;-58
2023/05/11 12:21:31;;;;;;;5.03;2.20;;;;;;;20.94;32.25;100430.13;5567466;32;33206;-58
2023/05/11 12:24:33;;;;;;;5.10;2.00;;;;;;;20.89;34.07;100417.53;5567135;32;33547;-58
2023/05/11 12:27:57;;;;;;;14.23;2.62;;;;;;;20.94;34.41;100419.22;5567612;32;33415;-58
2023/05/11 12:30:59;;;;;;;11.00;2.25;;;;;;;21.01;33.82;100422.12;5569948;32;33742;-58
2023/05/11 12:34:02;;;;;;;4.25;2.50;;;;;;;20.82;35.68;100414.59;5569411;32;34226;-58
2023/05/11 12:37:05;;;;;;;4.65;2.03;;;;;;;20.75;33.51;100403.53;5570109;32;33667;-58
2023/05/11 12:40:10;;;;;;;5.45;2.45;;;;;;;20.75;33.66;100404.31;5569904;32;34263;-58
2023/05/11 12:43:20;;;;;;;11.57;3.03;;;;;;;20.79;34.95;100401.69;5569424;32;33559;-58
2023/05/11 12:46:22;;;;;;;8.00;2.95;;;;;;;20.83;35.80;100402.59;5569573;32;33535;-58
2023/05/11 12:49:26;;;;;;;6.72;2.62;;;;;;;20.91;36.70;100400.84;5570000;32;34325;-58
2023/05/11 12:52:28;;;;;;;3.15;2.15;;;;;;;20.79;34.72;100394.28;5570038;32;34424;-58
2023/05/11 12:55:31;;;;;;;14.02;2.40;;;;;;;20.75;35.90;100389.91;5570100;32;34420;-58
2023/05/11 12:58:37;;;;;;;8.88;2.05;;;;;;;20.79;34.38;100388.06;5569765;32;34353;-58
2023/05/11 13:01:40;;;;;;;10.52;2.37;;;;;;;20.82;34.73;100382.69;5569365;32;34419;-58
2023/05/11 13:04:43;;;;;;;5.93;2.00;;;;;;;20.94;33.27;100386.50;5569869;32;33685;-58
2023/05/11 13:07:47;;;;;;;2.35;2.05;;;;;;;20.99;34.92;100386.25;5569560;32;33641;-58
2023/05/11 13:10:49;;;;;;;4.00;2.30;;;;;;;21.02;33.20;100359.06;5569875;32;33770;-58
2023/05/11 13:13:53;;;;;;;12.15;2.30;;;;;;;21.02;33.06;100375.44;5569815;32;33684;-58
2023/05/11 13:16:56;;;;;;;7.18;2.28;;;;;;;21.08;33.65;100368.59;5569892;32;33695;-58
2023/05/11 13:20:18;;;;;;;8.38;2.55;;;;;;;21.04;33.63;100370.44;5569667;32;33706;-58
2023/05/11 13:23:20;;;;;;;8.90;2.20;;;;;;;21.05;33.92;100365.78;5568787;32;33276;-58
2023/05/11 13:26:25;;;;;;;3.72;2.00;;;;;;;21.11;33.09;100358.91;5567038;31;32018;-58
2023/05/11 13:29:27;;;;;;;5.65;2.22;;;;;;;21.14;31.55;100351.97;5568748;32;33681;-58
2023/05/11 13:32:30;;;;;;;4.85;2.12;;;;;;;21.06;31.91;100342.84;5569090;32;33863;-58
2023/05/11 13:35:37;;;;;;;4.47;2.30;;;;;;;21.09;32.51;100350.28;5569782;32;34384;-59
2023/05/11 13:38:40;;;;;;;12.00;2.65;;;;;;;21.14;34.45;100354.69;5569181;32;34326;-58
2023/05/11 13:41:42;;;;;;;16.87;2.87;;;;;;;21.16;36.22;100352.41;5569501;32;33827;-58
2023/05/11 13:44:44;;;;;;;11.50;3.28;;;;;;;21.00;35.58;100345.03;5569170;32;34556;-58
2023/05/11 13:47:47;;;;;;;12.82;2.37;;;;;;;21.06;33.87;100349.09;5569939;32;33744;-58
2023/05/11 13:50:49;;;;;;;12.25;2.50;;;;;;;20.96;33.73;100344.16;5568905;32;33653;-58
2023/05/11 13:53:51;;;;;;;27.52;3.83;;;;;;;20.90;35.22;100339.31;5568673;32;33907;-58
2023/05/11 13:56:54;;;;;;;8.90;2.20;;;;;;;20.81;34.41;100343.00;5568962;32;34350;-58
2023/05/11 13:59:57;;;;;;;4.82;2.20;;;;;;;20.80;34.22;100346.88;5556591;32;34295;-58
2023/05/11 14:02:59;;;;;;;20.15;2.80;;;;;;;20.75;35.98;100335.41;5549530;32;33757;-58
2023/05/11 14:06:02;;;;;;;25.00;2.67;;;;;;;20.76;34.97;100334.28;5549058;32;33696;-58
2023/05/11 14:09:04;;;;;;;5.68;2.47;;;;;;;20.80;34.03;100333.25;5548308;32;34224;-58
2023/05/11 14:12:07;;;;;;;26.10;3.10;;;;;;;20.79;34.28;100322.69;5549548;32;33713;-58
2023/05/11 14:15:10;;;;;;;17.08;2.90;;;;;;;20.73;35.85;100335.78;5549503;32;33970;-59
2023/05/11 14:18:12;;;;;;;16.42;2.42;;;;;;;20.73;34.13;100330.34;5549772;32;33736;-58
2023/05/11 14:21:16;;;;;;;11.98;2.60;;;;;;;20.73;33.10;100324.87;5548769;32;33590;-58
2023/05/11 14:24:19;;;;;;;4.60;2.00;;;;;;;20.66;34.99;100330.12;5549681;32;33724;-58
2023/05/11 14:27:22;;;;;;;5.53;1.98;;;;;;;20.74;37.17;100321.00;5554902;32;33864;-57
2023/05/11 14:30:24;;;;;;;10.68;2.35;;;;;;;20.69;32.79;100320.47;5569317;32;33592;-57
2023/05/11 14:33:27;;;;;;;5.25;2.05;;;;;;;20.64;35.61;100318.81;5562364;32;33674;-57
2023/05/11 14:36:30;;;;;;;4.85;1.80;;;;;;;20.75;34.51;100322.59;5564182;32;34409;-57
2023/05/11 14:39:34;;;;;;;14.38;2.53;;;;;;;20.72;33.58;100319.78;5568880;32;33780;-57
2023/05/11 14:42:36;;;;;;;6.82;2.10;;;;;;;20.83;33.65;100310.75;5554158;32;34379;-57
2023/05/11 14:45:38;;;;;;;32.22;3.40;;;;;;;20.77;34.39;100314.87;5549336;32;33780;-57
2023/05/11 14:48:42;;;;;;;10.50;2.30;;;;;;;20.74;32.45;100314.78;5564163;32;33735;-57
2023/05/11 14:51:44;;;;;;;9.02;2.00;;;;;;;20.69;32.92;100317.75;5568596;32;33379;-57
2023/05/11 14:54:46;;;;;;;5.80;2.15;;;;;;;20.62;36.11;100304.72;5568769;32;34341;-57
2023/05/11 14:57:48;;;;;;;8.18;2.20;;;;;;;20.56;35.25;100322.47;5568664;32;34273;-57
2023/05/11 15:00:51;;;;;;;3.40;2.12;;;;;;;20.60;34.17;100317.94;5568455;32;34025;-57
2023/05/11 15:03:53;;;;;;;8.20;2.08;;;;;;;20.54;34.63;100316.59;5568926;32;33762;-57
2023/05/11 15:06:55;;;;;;;4.10;1.98;;;;;;;20.52;35.74;100324.31;5568802;32;34367;-57
2023/05/11 15:10:00;;;;;;;10.75;2.10;;;;;;;20.42;35.81;100320.91;5568925;32;33639;-57
2023/05/11 15:13:02;;;;;;;5.47;2.50;;;;;;;20.40;34.75;100320.50;5569155;32;34330;-57
2023/05/11 15:16:05;;;;;;;3.92;1.95;;;;;;;20.41;35.71;100319.34;5569070;32;33668;-57
2023/05/11 15:19:08;;;;;;;4.57;1.98;;;;;;;20.47;35.28;100325.34;5569014;32;34287;-57
2023/05/11 15:22:10;;;;;;;7.53;2.08;;;;;;;20.34;34.74;100326.53;5568991;32;33441;-57
2023/05/11 15:25:13;;;;;;;4.40;2.00;;;;;;;20.32;36.62;100326.88;5568839;32;33579;-57
2023/05/11 15:28:15;;;;;;;2.22;1.75;;;;;;;20.29;36.71;100316.66;5568677;32;34318;-57
